sensor_id;sensor_type;location;lat;lon;timestamp;temperature;humidity
10905;DHT22;5505;51.450;9.254;2022-08-23T00:01:01;19.00;99.90
10905;DHT22;5505;51.450;9.254;2022-08-23T00:03:51;19.00;99.90
10905;DHT22;5505;51.450;9.254;2022-08-23T00:06:40;18.90;99.90
10905;DHT22;5505;51.450;9.254;2022-08-23T00:09:27;18.90;99.90
10905;DHT22;5505;51.450;9.254;2022-08-23T00:12:18;18.90;99.90
10905;DHT22;5505;51.450;9.254;2022-08-23T00:15:08;18.90;99.90
10905;DHT22;5505;51.450;9.254;2022-08-23T00:17:55;18.90;99.90
10905;DHT22;5505;51.450;9.254;2022-08-23T00:20:43;18.90;99.90
10905;DHT22;5505;51.450;9.254;2022-08-23T00:23:30;18.90;99.90
10905;DHT22;5505;51.450;9.254;2022-08-23T00:26:17;18.90;99.90
10905;DHT22;5505;51.450;9.254;2022-08-23T00:29:05;18.90;99.90
10905;DHT22;5505;51.450;9.254;2022-08-23T00:31:53;18.90;99.90
10905;DHT22;5505;51.450;9.254;2022-08-23T00:34:40;19.00;99.90
10905;DHT22;5505;51.450;9.254;2022-08-23T00:37:27;19.00;99.90
10905;DHT22;5505;51.450;9.254;2022-08-23T00:40:17;19.10;99.90
10905;DHT22;5505;51.450;9.254;2022-08-23T00:43:08;19.10;99.90
10905;DHT22;5505;51.450;9.254;2022-08-23T00:46:25;19.20;99.90
10905;DHT22;5505;51.450;9.254;2022-08-23T00:49:32;19.10;99.90
10905;DHT22;5505;51.450;9.254;2022-08-23T00:52:26;19.10;99.90
10905;DHT22;5505;51.450;9.254;2022-08-23T00:55:15;19.10;99.90
10905;DHT22;5505;51.450;9.254;2022-08-23T00:58:02;19.10;99.90
10905;DHT22;5505;51.450;9.254;2022-08-23T01:00:51;19.00;99.90
10905;DHT22;5505;51.450;9.254;2022-08-23T01:03:41;19.00;99.90
10905;DHT22;5505;51.450;9.254;2022-08-23T01:06:32;18.90;99.90
10905;DHT22;5505;51.450;9.254;2022-08-23T01:09:20;18.90;99.90
10905;DHT22;5505;51.450;9.254;2022-08-23T01:12:10;18.90;99.90
10905;DHT22;5505;51.450;9.254;2022-08-23T01:15:04;18.90;99.90
10905;DHT22;5505;51.450;9.254;2022-08-23T01:17:56;18.80;99.90
10905;DHT22;5505;51.450;9.254;2022-08-23T01:20:50;18.80;99.90
10905;DHT22;5505;51.450;9.254;2022-08-23T01:23:43;18.70;99.90
10905;DHT22;5505;51.450;9.254;2022-08-23T01:26:31;18.70;99.90
10905;DHT22;5505;51.450;9.254;2022-08-23T01:29:19;18.60;99.90
10905;DHT22;5505;51.450;9.254;2022-08-23T01:32:07;18.60;99.90
10905;DHT22;5505;51.450;9.254;2022-08-23T01:34:54;18.60;99.90
10905;DHT22;5505;51.450;9.254;2022-08-23T01:37:41;17.70;99.90
10905;DHT22;5505;51.450;9.254;2022-08-23T01:40:29;18.60;99.90
10905;DHT22;5505;51.450;9.254;2022-08-23T01:43:17;18.60;99.90
10905;DHT22;5505;51.450;9.254;2022-08-23T01:46:08;18.70;99.90
10905;DHT22;5505;51.450;9.254;2022-08-23T01:48:55;18.70;99.90
10905;DHT22;5505;51.450;9.254;2022-08-23T01:51:42;18.60;99.90
10905;DHT22;5505;51.450;9.254;2022-08-23T01:54:29;18.60;99.90
10905;DHT22;5505;51.450;9.254;2022-08-23T01:57:17;18.60;99.90
10905;DHT22;5505;51.450;9.254;2022-08-23T02:00:06;18.60;99.90
10905;DHT22;5505;51.450;9.254;2022-08-23T02:02:53;18.50;99.90
10905;DHT22;5505;51.450;9.254;2022-08-23T02:05:41;18.50;99.90
10905;DHT22;5505;51.450;9.254;2022-08-23T02:08:30;18.40;99.90
10905;DHT22;5505;51.450;9.254;2022-08-23T02:11:36;18.30;99.90
10905;DHT22;5505;51.450;9.254;2022-08-23T02:14:24;18.30;99.90
10905;DHT22;5505;51.450;9.254;2022-08-23T02:17:11;18.30;99.90
10905;DHT22;5505;51.450;9.254;2022-08-23T02:20:00;18.40;99.90
10905;DHT22;5505;51.450;9.254;2022-08-23T02:22:49;18.40;99.90
10905;DHT22;5505;51.450;9.254;2022-08-23T02:25:36;18.50;99.90
10905;DHT22;5505;51.450;9.254;2022-08-23T02:28:23;18.40;99.90
10905;DHT22;5505;51.450;9.254;2022-08-23T02:31:11;18.30;99.90
10905;DHT22;5505;51.450;9.254;2022-08-23T02:33:59;18.20;99.90
10905;DHT22;5505;51.450;9.254;2022-08-23T02:36:46;18.20;99.90
10905;DHT22;5505;51.450;9.254;2022-08-23T02:39:34;18.10;99.90
10905;DHT22;5505;51.450;9.254;2022-08-23T02:42:21;18.10;99.90
10905;DHT22;5505;51.450;9.254;2022-08-23T02:45:08;18.20;99.90
10905;DHT22;5505;51.450;9.254;2022-08-23T02:47:57;18.20;99.90
10905;DHT22;5505;51.450;9.254;2022-08-23T02:50:44;18.10;99.90
10905;DHT22;5505;51.450;9.254;2022-08-23T02:53:32;18.10;99.90
10905;DHT22;5505;51.450;9.254;2022-08-23T02:56:19;18.00;99.90
10905;DHT22;5505;51.450;9.254;2022-08-23T02:59:06;18.00;99.90
10905;DHT22;5505;51.450;9.254;2022-08-23T03:01:53;18.00;99.90
10905;DHT22;5505;51.450;9.254;2022-08-23T03:04:41;18.00;99.90
10905;DHT22;5505;51.450;9.254;2022-08-23T03:07:28;18.00;99.90
10905;DHT22;5505;51.450;9.254;2022-08-23T03:10:15;18.00;99.90
10905;DHT22;5505;51.450;9.254;2022-08-23T03:13:02;17.90;99.90
10905;DHT22;5505;51.450;9.254;2022-08-23T03:15:49;18.00;99.90
10905;DHT22;5505;51.450;9.254;2022-08-23T03:18:36;18.00;99.90
10905;DHT22;5505;51.450;9.254;2022-08-23T03:21:25;18.00;99.90
10905;DHT22;5505;51.450;9.254;2022-08-23T03:24:12;18.00;99.90
10905;DHT22;5505;51.450;9.254;2022-08-23T03:26:59;17.90;99.90
10905;DHT22;5505;51.450;9.254;2022-08-23T03:29:45;17.80;99.90
10905;DHT22;5505;51.450;9.254;2022-08-23T03:32:32;17.70;99.90
10905;DHT22;5505;51.450;9.254;2022-08-23T03:35:19;17.70;99.90
10905;DHT22;5505;51.450;9.254;2022-08-23T03:38:07;17.60;99.90
10905;DHT22;5505;51.450;9.254;2022-08-23T03:40:54;17.60;99.90
10905;DHT22;5505;51.450;9.254;2022-08-23T03:43:41;17.70;99.90
10905;DHT22;5505;51.450;9.254;2022-08-23T03:46:28;17.60;99.90
10905;DHT22;5505;51.450;9.254;2022-08-23T03:49:15;17.60;99.90
10905;DHT22;5505;51.450;9.254;2022-08-23T03:52:02;17.40;99.90
10905;DHT22;5505;51.450;9.254;2022-08-23T03:54:51;17.40;99.90
10905;DHT22;5505;51.450;9.254;2022-08-23T03:57:38;17.40;99.90
10905;DHT22;5505;51.450;9.254;2022-08-23T04:00:25;17.30;99.90
10905;DHT22;5505;51.450;9.254;2022-08-23T04:03:12;17.30;99.90
10905;DHT22;5505;51.450;9.254;2022-08-23T04:05:58;17.20;99.90
10905;DHT22;5505;51.450;9.254;2022-08-23T04:08:45;17.20;99.90
10905;DHT22;5505;51.450;9.254;2022-08-23T04:11:34;17.20;99.90
10905;DHT22;5505;51.450;9.254;2022-08-23T04:14:20;17.20;99.90
10905;DHT22;5505;51.450;9.254;2022-08-23T04:17:08;17.10;99.90
10905;DHT22;5505;51.450;9.254;2022-08-23T04:19:55;17.00;99.90
10905;DHT22;5505;51.450;9.254;2022-08-23T04:22:42;17.00;99.90
10905;DHT22;5505;51.450;9.254;2022-08-23T04:25:29;16.90;99.90
10905;DHT22;5505;51.450;9.254;2022-08-23T04:28:19;17.00;99.90
10905;DHT22;5505;51.450;9.254;2022-08-23T04:31:06;17.00;99.90
10905;DHT22;5505;51.450;9.254;2022-08-23T04:33:54;17.10;99.90
10905;DHT22;5505;51.450;9.254;2022-08-23T04:36:42;17.20;99.90
10905;DHT22;5505;51.450;9.254;2022-08-23T04:39:29;17.20;99.90
10905;DHT22;5505;51.450;9.254;2022-08-23T04:42:36;17.20;99.90
10905;DHT22;5505;51.450;9.254;2022-08-23T04:45:23;17.20;99.90
10905;DHT22;5505;51.450;9.254;2022-08-23T04:48:11;17.10;99.90
10905;DHT22;5505;51.450;9.254;2022-08-23T04:50:58;17.10;99.90
10905;DHT22;5505;51.450;9.254;2022-08-23T04:53:45;15.70;99.90
10905;DHT22;5505;51.450;9.254;2022-08-23T04:56:32;17.00;99.90
10905;DHT22;5505;51.450;9.254;2022-08-23T04:59:19;17.00;99.90
10905;DHT22;5505;51.450;9.254;2022-08-23T05:02:07;17.00;99.90
10905;DHT22;5505;51.450;9.254;2022-08-23T05:04:54;17.00;99.90
10905;DHT22;5505;51.450;9.254;2022-08-23T05:07:41;17.00;99.90
10905;DHT22;5505;51.450;9.254;2022-08-23T05:10:28;17.00;99.90
10905;DHT22;5505;51.450;9.254;2022-08-23T05:13:14;17.00;99.90
10905;DHT22;5505;51.450;9.254;2022-08-23T05:16:02;17.00;99.90
10905;DHT22;5505;51.450;9.254;2022-08-23T05:18:50;17.00;99.90
10905;DHT22;5505;51.450;9.254;2022-08-23T05:21:37;17.00;99.90
10905;DHT22;5505;51.450;9.254;2022-08-23T05:24:24;17.00;99.90
10905;DHT22;5505;51.450;9.254;2022-08-23T05:27:10;17.00;99.90
10905;DHT22;5505;51.450;9.254;2022-08-23T05:29:57;17.00;99.90
10905;DHT22;5505;51.450;9.254;2022-08-23T05:32:45;16.90;99.90
10905;DHT22;5505;51.450;9.254;2022-08-23T05:35:33;16.90;99.90
10905;DHT22;5505;51.450;9.254;2022-08-23T05:38:20;16.90;99.90
10905;DHT22;5505;51.450;9.254;2022-08-23T05:41:08;17.00;99.90
10905;DHT22;5505;51.450;9.254;2022-08-23T05:43:55;17.00;99.90
10905;DHT22;5505;51.450;9.254;2022-08-23T05:46:41;17.00;99.90
10905;DHT22;5505;51.450;9.254;2022-08-23T05:49:29;17.00;99.90
10905;DHT22;5505;51.450;9.254;2022-08-23T05:52:18;17.00;99.90
10905;DHT22;5505;51.450;9.254;2022-08-23T05:55:05;17.00;99.90
10905;DHT22;5505;51.450;9.254;2022-08-23T05:57:52;17.20;99.90
10905;DHT22;5505;51.450;9.254;2022-08-23T06:00:39;17.30;99.90
10905;DHT22;5505;51.450;9.254;2022-08-23T06:03:26;17.40;99.90
10905;DHT22;5505;51.450;9.254;2022-08-23T06:06:14;17.50;99.90
10905;DHT22;5505;51.450;9.254;2022-08-23T06:09:05;17.50;99.90
10905;DHT22;5505;51.450;9.254;2022-08-23T06:11:52;17.60;99.90
10905;DHT22;5505;51.450;9.254;2022-08-23T06:14:39;17.70;99.90
10905;DHT22;5505;51.450;9.254;2022-08-23T06:17:26;17.70;99.90
10905;DHT22;5505;51.450;9.254;2022-08-23T06:20:13;17.90;99.90
10905;DHT22;5505;51.450;9.254;2022-08-23T06:23:00;17.90;99.90
10905;DHT22;5505;51.450;9.254;2022-08-23T06:25:48;17.90;99.90
10905;DHT22;5505;51.450;9.254;2022-08-23T06:28:35;17.90;99.90
10905;DHT22;5505;51.450;9.254;2022-08-23T06:31:24;17.80;99.90
10905;DHT22;5505;51.450;9.254;2022-08-23T06:34:31;17.90;99.90
10905;DHT22;5505;51.450;9.254;2022-08-23T06:37:18;18.00;99.90
10905;DHT22;5505;51.450;9.254;2022-08-23T06:40:06;18.10;99.90
10905;DHT22;5505;51.450;9.254;2022-08-23T06:42:55;18.30;99.90
10905;DHT22;5505;51.450;9.254;2022-08-23T06:45:43;18.50;99.90
10905;DHT22;5505;51.450;9.254;2022-08-23T06:48:29;18.70;99.90
10905;DHT22;5505;51.450;9.254;2022-08-23T06:51:21;20.00;99.90
10905;DHT22;5505;51.450;9.254;2022-08-23T06:54:11;19.10;99.90
10905;DHT22;5505;51.450;9.254;2022-08-23T06:56:59;20.50;99.90
10905;DHT22;5505;51.450;9.254;2022-08-23T06:59:48;19.40;99.90
10905;DHT22;5505;51.450;9.254;2022-08-23T07:02:35;19.60;99.90
10905;DHT22;5505;51.450;9.254;2022-08-23T07:05:22;19.80;99.90
10905;DHT22;5505;51.450;9.254;2022-08-23T07:08:09;20.00;99.90
10905;DHT22;5505;51.450;9.254;2022-08-23T07:10:55;20.20;99.90
10905;DHT22;5505;51.450;9.254;2022-08-23T07:13:42;20.30;99.90
10905;DHT22;5505;51.450;9.254;2022-08-23T07:16:33;20.50;99.90
10905;DHT22;5505;51.450;9.254;2022-08-23T07:19:24;20.60;99.90
10905;DHT22;5505;51.450;9.254;2022-08-23T07:22:11;20.80;99.90
10905;DHT22;5505;51.450;9.254;2022-08-23T07:24:59;20.90;99.90
10905;DHT22;5505;51.450;9.254;2022-08-23T07:27:46;21.00;99.90
10905;DHT22;5505;51.450;9.254;2022-08-23T07:30:33;21.30;99.90
10905;DHT22;5505;51.450;9.254;2022-08-23T07:33:21;21.40;99.90
10905;DHT22;5505;51.450;9.254;2022-08-23T07:36:08;21.50;99.90
10905;DHT22;5505;51.450;9.254;2022-08-23T07:38:56;21.80;99.90
10905;DHT22;5505;51.450;9.254;2022-08-23T07:41:43;22.00;99.90
10905;DHT22;5505;51.450;9.254;2022-08-23T07:44:31;22.10;99.90
10905;DHT22;5505;51.450;9.254;2022-08-23T07:47:18;22.30;99.90
10905;DHT22;5505;51.450;9.254;2022-08-23T07:50:08;22.50;99.90
10905;DHT22;5505;51.450;9.254;2022-08-23T07:52:55;22.60;99.90
10905;DHT22;5505;51.450;9.254;2022-08-23T07:55:42;22.60;99.90
10905;DHT22;5505;51.450;9.254;2022-08-23T07:58:28;22.70;99.90
10905;DHT22;5505;51.450;9.254;2022-08-23T08:01:19;22.70;99.90
10905;DHT22;5505;51.450;9.254;2022-08-23T08:04:06;22.80;99.90
10905;DHT22;5505;51.450;9.254;2022-08-23T08:06:54;23.00;99.90
10905;DHT22;5505;51.450;9.254;2022-08-23T08:09:43;23.20;99.90
10905;DHT22;5505;51.450;9.254;2022-08-23T08:12:30;23.40;99.90
10905;DHT22;5505;51.450;9.254;2022-08-23T08:15:18;23.50;99.90
10905;DHT22;5505;51.450;9.254;2022-08-23T08:18:06;23.60;99.90
10905;DHT22;5505;51.450;9.254;2022-08-23T08:20:53;23.70;99.90
10905;DHT22;5505;51.450;9.254;2022-08-23T08:23:41;23.90;99.90
10905;DHT22;5505;51.450;9.254;2022-08-23T08:26:28;24.10;99.90
10905;DHT22;5505;51.450;9.254;2022-08-23T08:29:15;24.20;99.90
10905;DHT22;5505;51.450;9.254;2022-08-23T08:32:02;24.30;99.90
10905;DHT22;5505;51.450;9.254;2022-08-23T08:34:49;24.40;99.90
10905;DHT22;5505;51.450;9.254;2022-08-23T08:37:36;24.60;99.90
10905;DHT22;5505;51.450;9.254;2022-08-23T08:40:29;24.70;99.90
10905;DHT22;5505;51.450;9.254;2022-08-23T08:43:27;24.90;99.80
10905;DHT22;5505;51.450;9.254;2022-08-23T08:46:20;25.00;99.00
10905;DHT22;5505;51.450;9.254;2022-08-23T08:49:12;25.00;99.30
10905;DHT22;5505;51.450;9.254;2022-08-23T08:52:02;25.10;99.20
10905;DHT22;5505;51.450;9.254;2022-08-23T08:54:58;25.10;99.20
10905;DHT22;5505;51.450;9.254;2022-08-23T08:57:48;25.20;99.10
10905;DHT22;5505;51.450;9.254;2022-08-23T09:00:36;25.30;98.40
10905;DHT22;5505;51.450;9.254;2022-08-23T09:03:30;25.10;99.00
10905;DHT22;5505;51.450;9.254;2022-08-23T09:06:23;25.20;98.40
10905;DHT22;5505;51.450;9.254;2022-08-23T09:09:23;25.40;98.80
10905;DHT22;5505;51.450;9.254;2022-08-23T09:12:19;25.40;98.20
10905;DHT22;5505;51.450;9.254;2022-08-23T09:15:19;25.50;97.80
10905;DHT22;5505;51.450;9.254;2022-08-23T09:18:09;25.50;98.00
10905;DHT22;5505;51.450;9.254;2022-08-23T09:20:57;25.60;98.40
10905;DHT22;5505;51.450;9.254;2022-08-23T09:23:48;25.60;97.20
10905;DHT22;5505;51.450;9.254;2022-08-23T09:26:35;25.70;97.80
10905;DHT22;5505;51.450;9.254;2022-08-23T09:29:24;25.80;97.90
10905;DHT22;5505;51.450;9.254;2022-08-23T09:32:26;25.90;97.40
10905;DHT22;5505;51.450;9.254;2022-08-23T09:35:16;26.00;96.60
10905;DHT22;5505;51.450;9.254;2022-08-23T09:38:15;26.00;96.60
10905;DHT22;5505;51.450;9.254;2022-08-23T09:41:15;26.20;96.70
10905;DHT22;5505;51.450;9.254;2022-08-23T09:44:07;26.50;96.80
10905;DHT22;5505;51.450;9.254;2022-08-23T09:47:04;26.50;95.90
10905;DHT22;5505;51.450;9.254;2022-08-23T09:49:53;26.50;95.90
10905;DHT22;5505;51.450;9.254;2022-08-23T09:52:40;26.50;95.00
10905;DHT22;5505;51.450;9.254;2022-08-23T09:55:31;26.50;95.10
10905;DHT22;5505;51.450;9.254;2022-08-23T09:58:23;26.40;94.80
10905;DHT22;5505;51.450;9.254;2022-08-23T10:01:17;26.50;95.10
10905;DHT22;5505;51.450;9.254;2022-08-23T10:04:11;26.60;94.80
10905;DHT22;5505;51.450;9.254;2022-08-23T10:07:00;26.80;93.80
10905;DHT22;5505;51.450;9.254;2022-08-23T10:10:22;26.70;94.10
10905;DHT22;5505;51.450;9.254;2022-08-23T10:13:11;26.80;94.30
10905;DHT22;5505;51.450;9.254;2022-08-23T10:16:04;26.80;94.20
10905;DHT22;5505;51.450;9.254;2022-08-23T10:19:01;26.80;93.90
10905;DHT22;5505;51.450;9.254;2022-08-23T10:21:55;26.70;94.00
10905;DHT22;5505;51.450;9.254;2022-08-23T10:24:46;26.80;94.50
10905;DHT22;5505;51.450;9.254;2022-08-23T10:27:40;27.00;94.50
10905;DHT22;5505;51.450;9.254;2022-08-23T10:30:53;27.00;94.40
10905;DHT22;5505;51.450;9.254;2022-08-23T10:33:47;27.20;94.10
10905;DHT22;5505;51.450;9.254;2022-08-23T10:36:45;27.30;93.30
10905;DHT22;5505;51.450;9.254;2022-08-23T10:39:37;27.30;93.70
10905;DHT22;5505;51.450;9.254;2022-08-23T10:42:35;27.30;93.30
10905;DHT22;5505;51.450;9.254;2022-08-23T10:45:25;27.20;93.40
10905;DHT22;5505;51.450;9.254;2022-08-23T10:48:19;27.50;93.20
10905;DHT22;5505;51.450;9.254;2022-08-23T10:51:10;27.60;93.30
10905;DHT22;5505;51.450;9.254;2022-08-23T10:54:01;27.70;92.80
10905;DHT22;5505;51.450;9.254;2022-08-23T10:56:51;27.90;92.70
10905;DHT22;5505;51.450;9.254;2022-08-23T10:59:39;27.80;93.20
10905;DHT22;5505;51.450;9.254;2022-08-23T11:02:33;27.90;92.40
10905;DHT22;5505;51.450;9.254;2022-08-23T11:05:28;27.90;92.60
10905;DHT22;5505;51.450;9.254;2022-08-23T11:08:30;28.00;92.80
10905;DHT22;5505;51.450;9.254;2022-08-23T11:11:41;28.10;92.40
10905;DHT22;5505;51.450;9.254;2022-08-23T11:14:35;28.10;92.60
10905;DHT22;5505;51.450;9.254;2022-08-23T11:17:26;28.10;92.00
10905;DHT22;5505;51.450;9.254;2022-08-23T11:20:54;28.10;91.80
10905;DHT22;5505;51.450;9.254;2022-08-23T11:23:46;28.20;92.30
10905;DHT22;5505;51.450;9.254;2022-08-23T11:27:03;28.10;91.50
10905;DHT22;5505;51.450;9.254;2022-08-23T11:29:50;28.20;91.40
10905;DHT22;5505;51.450;9.254;2022-08-23T11:32:40;28.20;91.70
10905;DHT22;5505;51.450;9.254;2022-08-23T11:35:36;28.10;92.20
10905;DHT22;5505;51.450;9.254;2022-08-23T11:39:00;28.10;91.70
10905;DHT22;5505;51.450;9.254;2022-08-23T11:42:02;28.10;91.40
10905;DHT22;5505;51.450;9.254;2022-08-23T11:44:51;28.20;91.70
10905;DHT22;5505;51.450;9.254;2022-08-23T11:47:40;28.30;91.50
10905;DHT22;5505;51.450;9.254;2022-08-23T11:50:33;28.30;91.70
10905;DHT22;5505;51.450;9.254;2022-08-23T11:57:04;28.40;91.60
10905;DHT22;5505;51.450;9.254;2022-08-23T12:00:04;28.30;91.00
10905;DHT22;5505;51.450;9.254;2022-08-23T12:02:57;28.40;91.40
10905;DHT22;5505;51.450;9.254;2022-08-23T12:06:13;28.40;91.30
10905;DHT22;5505;51.450;9.254;2022-08-23T12:09:02;28.50;91.20
10905;DHT22;5505;51.450;9.254;2022-08-23T12:12:10;28.60;90.30
10905;DHT22;5505;51.450;9.254;2022-08-23T12:14:59;28.60;90.70
10905;DHT22;5505;51.450;9.254;2022-08-23T12:18:11;28.50;90.50
10905;DHT22;5505;51.450;9.254;2022-08-23T12:20:59;28.50;90.80
10905;DHT22;5505;51.450;9.254;2022-08-23T12:23:50;28.60;90.20
10905;DHT22;5505;51.450;9.254;2022-08-23T12:26:44;28.70;90.10
10905;DHT22;5505;51.450;9.254;2022-08-23T12:29:45;28.60;89.70
10905;DHT22;5505;51.450;9.254;2022-08-23T12:32:39;28.40;90.10
10905;DHT22;5505;51.450;9.254;2022-08-23T12:35:38;28.50;91.10
10905;DHT22;5505;51.450;9.254;2022-08-23T12:38:34;28.50;89.70
10905;DHT22;5505;51.450;9.254;2022-08-23T12:41:26;28.60;89.00
10905;DHT22;5505;51.450;9.254;2022-08-23T12:44:17;28.70;89.10
10905;DHT22;5505;51.450;9.254;2022-08-23T12:47:12;28.60;89.90
10905;DHT22;5505;51.450;9.254;2022-08-23T12:50:15;28.50;88.30
10905;DHT22;5505;51.450;9.254;2022-08-23T12:53:06;28.30;87.70
10905;DHT22;5505;51.450;9.254;2022-08-23T12:55:59;28.00;89.80
10905;DHT22;5505;51.450;9.254;2022-08-23T12:58:52;27.90;88.60
10905;DHT22;5505;51.450;9.254;2022-08-23T13:01:40;27.90;89.70
10905;DHT22;5505;51.450;9.254;2022-08-23T13:04:31;28.00;90.10
10905;DHT22;5505;51.450;9.254;2022-08-23T13:07:21;28.10;89.90
10905;DHT22;5505;51.450;9.254;2022-08-23T13:10:11;27.90;89.70
10905;DHT22;5505;51.450;9.254;2022-08-23T13:12:58;27.90;90.40
10905;DHT22;5505;51.450;9.254;2022-08-23T13:15:51;27.80;90.30
10905;DHT22;5505;51.450;9.254;2022-08-23T13:18:41;27.70;89.40
10905;DHT22;5505;51.450;9.254;2022-08-23T13:21:31;27.60;90.20
10905;DHT22;5505;51.450;9.254;2022-08-23T13:24:33;27.60;90.20
10905;DHT22;5505;51.450;9.254;2022-08-23T13:27:22;27.60;89.90
10905;DHT22;5505;51.450;9.254;2022-08-23T13:30:20;27.60;89.40
10905;DHT22;5505;51.450;9.254;2022-08-23T13:33:21;27.80;90.00
10905;DHT22;5505;51.450;9.254;2022-08-23T13:36:12;28.00;89.40
10905;DHT22;5505;51.450;9.254;2022-08-23T13:39:05;28.20;89.30
10905;DHT22;5505;51.450;9.254;2022-08-23T13:41:52;28.30;88.30
10905;DHT22;5505;51.450;9.254;2022-08-23T13:44:40;28.30;87.70
10905;DHT22;5505;51.450;9.254;2022-08-23T13:47:27;28.30;89.30
10905;DHT22;5505;51.450;9.254;2022-08-23T13:50:16;28.40;87.90
10905;DHT22;5505;51.450;9.254;2022-08-23T13:53:07;28.50;87.60
10905;DHT22;5505;51.450;9.254;2022-08-23T13:55:55;28.50;87.70
10905;DHT22;5505;51.450;9.254;2022-08-23T13:58:52;28.50;87.70
10905;DHT22;5505;51.450;9.254;2022-08-23T14:01:39;28.60;87.40
10905;DHT22;5505;51.450;9.254;2022-08-23T14:04:26;28.60;86.80
10905;DHT22;5505;51.450;9.254;2022-08-23T14:07:13;28.60;87.00
10905;DHT22;5505;51.450;9.254;2022-08-23T14:10:00;28.60;86.70
10905;DHT22;5505;51.450;9.254;2022-08-23T14:12:52;28.60;86.90
10905;DHT22;5505;51.450;9.254;2022-08-23T14:15:41;28.70;85.80
10905;DHT22;5505;51.450;9.254;2022-08-23T14:18:28;28.60;86.20
10905;DHT22;5505;51.450;9.254;2022-08-23T14:21:15;28.60;86.20
10905;DHT22;5505;51.450;9.254;2022-08-23T14:24:02;28.40;86.20
10905;DHT22;5505;51.450;9.254;2022-08-23T14:26:49;28.30;86.50
10905;DHT22;5505;51.450;9.254;2022-08-23T14:29:39;28.20;85.50
10905;DHT22;5505;51.450;9.254;2022-08-23T14:32:26;28.00;87.00
10905;DHT22;5505;51.450;9.254;2022-08-23T14:35:13;28.00;86.60
10905;DHT22;5505;51.450;9.254;2022-08-23T14:38:00;28.00;87.50
10905;DHT22;5505;51.450;9.254;2022-08-23T14:40:52;28.20;88.60
10905;DHT22;5505;51.450;9.254;2022-08-23T14:43:39;28.20;86.30
10905;DHT22;5505;51.450;9.254;2022-08-23T14:46:27;28.30;84.80
10905;DHT22;5505;51.450;9.254;2022-08-23T14:49:14;28.30;86.50
10905;DHT22;5505;51.450;9.254;2022-08-23T14:52:03;28.50;86.10
10905;DHT22;5505;51.450;9.254;2022-08-23T14:54:49;28.50;85.70
10905;DHT22;5505;51.450;9.254;2022-08-23T14:57:36;28.60;85.00
10905;DHT22;5505;51.450;9.254;2022-08-23T15:00:23;28.50;84.60
10905;DHT22;5505;51.450;9.254;2022-08-23T15:03:16;28.50;86.30
10905;DHT22;5505;51.450;9.254;2022-08-23T15:06:04;28.40;84.90
10905;DHT22;5505;51.450;9.254;2022-08-23T15:08:51;28.40;84.30
10905;DHT22;5505;51.450;9.254;2022-08-23T15:11:38;28.30;85.10
10905;DHT22;5505;51.450;9.254;2022-08-23T15:14:25;28.20;84.90
10905;DHT22;5505;51.450;9.254;2022-08-23T15:17:12;28.20;84.00
10905;DHT22;5505;51.450;9.254;2022-08-23T15:20:00;28.20;85.20
10905;DHT22;5505;51.450;9.254;2022-08-23T15:22:47;28.20;86.00
10905;DHT22;5505;51.450;9.254;2022-08-23T15:25:37;28.30;84.00
10905;DHT22;5505;51.450;9.254;2022-08-23T15:28:24;28.30;84.20
10905;DHT22;5505;51.450;9.254;2022-08-23T15:31:15;28.40;85.40
10905;DHT22;5505;51.450;9.254;2022-08-23T15:34:02;28.40;84.60
10905;DHT22;5505;51.450;9.254;2022-08-23T15:36:50;28.60;83.90
10905;DHT22;5505;51.450;9.254;2022-08-23T15:39:37;28.60;84.50
10905;DHT22;5505;51.450;9.254;2022-08-23T15:42:24;28.60;83.40
10905;DHT22;5505;51.450;9.254;2022-08-23T15:45:11;28.50;83.60
10905;DHT22;5505;51.450;9.254;2022-08-23T15:47:59;28.50;84.00
10905;DHT22;5505;51.450;9.254;2022-08-23T15:50:49;28.60;83.70
10905;DHT22;5505;51.450;9.254;2022-08-23T15:53:38;28.50;84.10
10905;DHT22;5505;51.450;9.254;2022-08-23T15:56:28;28.40;84.20
10905;DHT22;5505;51.450;9.254;2022-08-23T15:59:18;28.40;84.60
10905;DHT22;5505;51.450;9.254;2022-08-23T16:02:06;28.30;83.50
10905;DHT22;5505;51.450;9.254;2022-08-23T16:04:53;28.20;83.10
10905;DHT22;5505;51.450;9.254;2022-08-23T16:07:40;28.20;84.50
10905;DHT22;5505;51.450;9.254;2022-08-23T16:10:28;28.10;84.50
10905;DHT22;5505;51.450;9.254;2022-08-23T16:13:16;28.20;83.70
10905;DHT22;5505;51.450;9.254;2022-08-23T16:16:03;28.20;84.10
10905;DHT22;5505;51.450;9.254;2022-08-23T16:18:51;28.30;84.00
10905;DHT22;5505;51.450;9.254;2022-08-23T16:21:38;28.40;83.70
10905;DHT22;5505;51.450;9.254;2022-08-23T16:24:25;28.50;82.60
10905;DHT22;5505;51.450;9.254;2022-08-23T16:27:14;28.30;83.80
10905;DHT22;5505;51.450;9.254;2022-08-23T16:30:01;28.20;83.80
10905;DHT22;5505;51.450;9.254;2022-08-23T16:32:48;28.00;84.70
10905;DHT22;5505;51.450;9.254;2022-08-23T16:35:35;27.80;85.10
10905;DHT22;5505;51.450;9.254;2022-08-23T16:38:21;27.70;84.80
10905;DHT22;5505;51.450;9.254;2022-08-23T16:41:08;27.60;85.20
10905;DHT22;5505;51.450;9.254;2022-08-23T16:43:56;27.50;84.60
10905;DHT22;5505;51.450;9.254;2022-08-23T16:46:43;27.40;85.50
10905;DHT22;5505;51.450;9.254;2022-08-23T16:49:30;27.30;85.90
10905;DHT22;5505;51.450;9.254;2022-08-23T16:52:18;27.30;86.40
10905;DHT22;5505;51.450;9.254;2022-08-23T16:55:07;27.20;86.10
10905;DHT22;5505;51.450;9.254;2022-08-23T16:57:54;27.20;87.20
10905;DHT22;5505;51.450;9.254;2022-08-23T17:00:43;27.20;86.70
10905;DHT22;5505;51.450;9.254;2022-08-23T17:03:30;27.20;85.90
10905;DHT22;5505;51.450;9.254;2022-08-23T17:06:17;27.20;86.90
10905;DHT22;5505;51.450;9.254;2022-08-23T17:09:03;27.20;86.80
10905;DHT22;5505;51.450;9.254;2022-08-23T17:11:51;27.10;87.20
10905;DHT22;5505;51.450;9.254;2022-08-23T17:14:38;27.10;87.80
10905;DHT22;5505;51.450;9.254;2022-08-23T17:17:26;27.00;86.30
10905;DHT22;5505;51.450;9.254;2022-08-23T17:20:15;27.10;86.90
10905;DHT22;5505;51.450;9.254;2022-08-23T17:23:02;26.70;85.90
10905;DHT22;5505;51.450;9.254;2022-08-23T17:25:49;26.90;86.40
10905;DHT22;5505;51.450;9.254;2022-08-23T17:28:36;26.90;87.50
10905;DHT22;5505;51.450;9.254;2022-08-23T17:31:23;26.80;87.50
10905;DHT22;5505;51.450;9.254;2022-08-23T17:34:12;26.70;87.70
10905;DHT22;5505;51.450;9.254;2022-08-23T17:36:59;26.60;88.10
10905;DHT22;5505;51.450;9.254;2022-08-23T17:39:47;26.50;88.60
10905;DHT22;5505;51.450;9.254;2022-08-23T17:42:34;26.40;88.90
10905;DHT22;5505;51.450;9.254;2022-08-23T17:45:22;26.40;88.70
10905;DHT22;5505;51.450;9.254;2022-08-23T17:48:09;26.40;89.20
10905;DHT22;5505;51.450;9.254;2022-08-23T17:50:57;26.20;89.30
10905;DHT22;5505;51.450;9.254;2022-08-23T17:53:44;26.00;89.80
10905;DHT22;5505;51.450;9.254;2022-08-23T17:56:32;25.90;90.10
10905;DHT22;5505;51.450;9.254;2022-08-23T17:59:19;25.80;90.40
10905;DHT22;5505;51.450;9.254;2022-08-23T18:02:06;25.70;90.80
10905;DHT22;5505;51.450;9.254;2022-08-23T18:04:53;25.50;90.90
10905;DHT22;5505;51.450;9.254;2022-08-23T18:07:41;25.40;91.00
10905;DHT22;5505;51.450;9.254;2022-08-23T18:10:28;25.30;91.30
10905;DHT22;5505;51.450;9.254;2022-08-23T18:13:15;25.00;91.10